Time;durP1;ratioP1;P1;durP2;ratioP2;P2;SDS_P1;SDS_P2;PMS_P1;PMS_P2;Temp;Humidity;BMP_temperature;BMP_pressure;BME280_temperature;BME280_humidity;BME280_pressure;Samples;Min_cycle;Max_cycle;Signal;HPM_P1;HPM_P2
2022/10/22 00:00:13;;;;;;;;;;;;;;;;;;5011501;28;1192;-73
2022/10/22 00:02:39;;;;;;;;;;;;;;;;;;5011047;28;1365;-73
2022/10/22 00:05:04;;;;;;;;;;;;;;;;;;5011157;28;1180;-74
2022/10/22 00:07:30;;;;;;;;;;;;;;;;;;5012354;28;900;-73
2022/10/22 00:09:55;;;;;;;;;;;;;;;;;;5012386;28;889;-74
2022/10/22 00:12:21;;;;;;;;;;;;;;;;;;4994617;28;1906;-74
2022/10/22 00:14:46;;;;;;;;;;;;;;;;;;5010882;28;905;-74
2022/10/22 00:17:12;;;;;;;;;;;;;;;;;;5010970;28;1377;-74
2022/10/22 00:19:38;;;;;;;;;;;;;;;;;;5010527;28;1457;-74
2022/10/22 00:22:06;;;;;;;;;;;;;;;;;;5012431;28;1071;-73
2022/10/22 00:24:33;;;;;;;;;;;;;;;;;;5010093;28;1314;-74
2022/10/22 00:26:58;;;;;;;;;;;;;;;;;;5012340;28;897;-74
2022/10/22 00:29:26;;;;;;;;;;;;;;;;;;5011913;28;915;-74
2022/10/22 00:31:51;;;;;;;;;;;;;;;;;;4993817;28;1977;-73
2022/10/22 00:34:17;;;;;;;;;;;;;;;;;;5010759;28;861;-73
2022/10/22 00:36:42;;;;;;;;;;;;;;;;;;4993662;28;1288;-73
2022/10/22 00:39:08;;;;;;;;;;;;;;;;;;5010409;28;1231;-74
2022/10/22 00:41:33;;;;;;;;;;;;;;;;;;5009917;28;1395;-71
2022/10/22 00:44:03;;;;;;;;;;;;;;;;;;5010551;28;837;-74
2022/10/22 00:46:28;;;;;;;;;;;;;;;;;;5009540;28;1120;-72
2022/10/22 00:48:55;;;;;;;;;;;;;;;;;;5011001;28;1121;-71
2022/10/22 00:51:22;;;;;;;;;;;;;;;;;;5010190;28;1958;-74
2022/10/22 00:53:54;;;;;;;;;;;;;;;;;;5009991;28;1306;-74
2022/10/22 00:56:20;;;;;;;;;;;;;;;;;;5042500;28;4187;-73
2022/10/22 00:58:52;;;;;;;;;;;;;;;;;;4991687;28;849;-74
2022/10/22 01:01:21;;;;;;;;;;;;;;;;;;4991217;28;1224;-74
2022/10/22 01:03:47;;;;;;;;;;;;;;;;;;4992381;28;980;-74
2022/10/22 01:06:16;;;;;;;;;;;;;;;;;;4993108;28;901;-73
2022/10/22 01:08:47;;;;;;;;;;;;;;;;;;4992479;28;802;-73
2022/10/22 01:11:13;;;;;;;;;;;;;;;;;;4991138;28;1907;-73
2022/10/22 01:13:58;;;;;;;;;;;;;;;;;;4990976;28;1187;-73
2022/10/22 01:16:23;;;;;;;;;;;;;;;;;;4991763;28;1062;-73
2022/10/22 01:19:06;;;;;;;;;;;;;;;;;;4991087;28;1318;-74
2022/10/22 01:21:34;;;;;;;;;;;;;;;;;;4990958;28;1168;-73
2022/10/22 01:24:08;;;;;;;;;;;;;;;;;;4991303;28;1320;-74
2022/10/22 01:26:37;;;;;;;;;;;;;;;;;;4990622;28;1169;-73
2022/10/22 01:29:02;;;;;;;;;;;;;;;;;;4990234;28;1264;-74
2022/10/22 01:31:38;;;;;;;;;;;;;;;;;;4990522;28;1902;-73
2022/10/22 01:34:05;;;;;;;;;;;;;;;;;;4991911;28;818;-74
2022/10/22 01:36:32;;;;;;;;;;;;;;;;;;5005650;28;1193;-73
2022/10/22 01:38:59;;;;;;;;;;;;;;;;;;5030490;28;1244;-74
2022/10/22 01:41:26;;;;;;;;;;;;;;;;;;5014616;28;636;-73
2022/10/22 01:43:51;;;;;;;;;;;;;;;;;;5029823;28;1351;-74
2022/10/22 01:46:21;;;;;;;;;;;;;;;;;;4997583;28;882;-73
2022/10/22 01:48:55;;;;;;;;;;;;;;;;;;5014668;28;893;-73
2022/10/22 01:51:26;;;;;;;;;;;;;;;;;;5014872;28;1906;-74
2022/10/22 01:54:06;;;;;;;;;;;;;;;;;;5014494;28;877;-74
2022/10/22 01:56:39;;;;;;;;;;;;;;;;;;4996650;28;1137;-74
2022/10/22 01:59:05;;;;;;;;;;;;;;;;;;5015192;28;866;-73
2022/10/22 02:01:40;;;;;;;;;;;;;;;;;;5014299;28;900;-73
2022/10/22 02:04:10;;;;;;;;;;;;;;;;;;4997132;28;1319;-73
2022/10/22 02:06:38;;;;;;;;;;;;;;;;;;5014127;28;1004;-74
2022/10/22 02:09:04;;;;;;;;;;;;;;;;;;5014745;28;916;-73
2022/10/22 02:11:30;;;;;;;;;;;;;;;;;;5029275;28;1909;-73
2022/10/22 02:13:57;;;;;;;;;;;;;;;;;;4996745;28;1248;-74
2022/10/22 02:16:55;;;;;;;;;;;;;;;;;;5029380;28;1299;-73
2022/10/22 02:19:25;;;;;;;;;;;;;;;;;;4974998;28;1359;-74
2022/10/22 02:21:51;;;;;;;;;;;;;;;;;;5029005;28;1252;-73
2022/10/22 02:24:17;;;;;;;;;;;;;;;;;;5029626;28;1365;-74
2022/10/22 02:26:49;;;;;;;;;;;;;;;;;;5029314;28;1268;-73
2022/10/22 02:29:17;;;;;;;;;;;;;;;;;;4997150;28;1292;-74
2022/10/22 02:31:44;;;;;;;;;;;;;;;;;;5028757;28;1890;-73
2022/10/22 02:34:12;;;;;;;;;;;;;;;;;;5029759;28;1299;-73
2022/10/22 02:36:39;;;;;;;;;;;;;;;;;;5028556;28;1256;-73
2022/10/22 02:39:05;;;;;;;;;;;;;;;;;;5014068;28;783;-73
2022/10/22 02:41:31;;;;;;;;;;;;;;;;;;5014106;28;908;-73
2022/10/22 02:43:56;;;;;;;;;;;;;;;;;;5029058;28;1292;-73
2022/10/22 02:46:22;;;;;;;;;;;;;;;;;;5029828;28;3096;-73
2022/10/22 02:48:47;;;;;;;;;;;;;;;;;;5014501;28;873;-73
2022/10/22 02:51:13;;;;;;;;;;;;;;;;;;5014757;28;1973;-74
2022/10/22 02:53:38;;;;;;;;;;;;;;;;;;5014788;28;940;-73
2022/10/22 02:56:03;;;;;;;;;;;;;;;;;;4997459;28;862;-73
2022/10/22 02:58:29;;;;;;;;;;;;;;;;;;4996784;28;928;-73
2022/10/22 03:00:54;;;;;;;;;;;;;;;;;;5014042;28;908;-73
2022/10/22 03:03:19;;;;;;;;;;;;;;;;;;4995898;28;1043;-73
2022/10/22 03:05:44;;;;;;;;;;;;;;;;;;5013206;28;952;-73
2022/10/22 03:08:10;;;;;;;;;;;;;;;;;;4996484;28;1154;-73
2022/10/22 03:10:35;;;;;;;;;;;;;;;;;;4995560;28;1296;-73
2022/10/22 03:13:00;;;;;;;;;;;;;;;;;;4996020;28;1973;-73
2022/10/22 03:15:26;;;;;;;;;;;;;;;;;;4995844;28;1142;-73
2022/10/22 03:17:51;;;;;;;;;;;;;;;;;;5013295;28;967;-73
2022/10/22 03:20:16;;;;;;;;;;;;;;;;;;5013624;28;1063;-73
2022/10/22 03:22:42;;;;;;;;;;;;;;;;;;4995274;28;1311;-73
2022/10/22 03:25:16;;;;;;;;;;;;;;;;;;5012176;28;1164;-73
2022/10/22 03:27:41;;;;;;;;;;;;;;;;;;5011929;28;1291;-73
2022/10/22 03:30:07;;;;;;;;;;;;;;;;;;5012342;28;1256;-73
2022/10/22 03:32:32;;;;;;;;;;;;;;;;;;4995533;28;1902;-74
2022/10/22 03:34:58;;;;;;;;;;;;;;;;;;5013015;28;1340;-74
2022/10/22 03:37:24;;;;;;;;;;;;;;;;;;4995335;28;1264;-73
2022/10/22 03:39:49;;;;;;;;;;;;;;;;;;5013087;28;912;-73
2022/10/22 03:42:16;;;;;;;;;;;;;;;;;;5014341;28;925;-74
2022/10/22 03:44:41;;;;;;;;;;;;;;;;;;5014110;28;833;-73
2022/10/22 03:47:07;;;;;;;;;;;;;;;;;;4996231;28;1412;-73
2022/10/22 03:49:32;;;;;;;;;;;;;;;;;;5012296;28;1200;-72
2022/10/22 03:51:57;;;;;;;;;;;;;;;;;;4995585;28;1906;-74
2022/10/22 03:54:23;;;;;;;;;;;;;;;;;;4995889;28;901;-74
2022/10/22 03:56:48;;;;;;;;;;;;;;;;;;5013212;28;849;-74
2022/10/22 03:59:13;;;;;;;;;;;;;;;;;;5004237;28;1384;-71
2022/10/22 04:01:39;;;;;;;;;;;;;;;;;;5005376;28;1052;-73
2022/10/22 04:04:04;;;;;;;;;;;;;;;;;;5021614;28;876;-73
2022/10/22 04:06:29;;;;;;;;;;;;;;;;;;5021541;28;1027;-72
2022/10/22 04:08:55;;;;;;;;;;;;;;;;;;5019818;28;913;-72
2022/10/22 04:11:20;;;;;;;;;;;;;;;;;;5001739;28;1896;-72
2022/10/22 04:13:45;;;;;;;;;;;;;;;;;;5018746;28;1004;-71
2022/10/22 04:16:15;;;;;;;;;;;;;;;;;;5001445;28;1288;-71
2022/10/22 04:18:41;;;;;;;;;;;;;;;;;;5016055;28;1305;-73
2022/10/22 04:21:07;;;;;;;;;;;;;;;;;;4999986;28;1385;-72
2022/10/22 04:23:34;;;;;;;;;;;;;;;;;;5018755;28;807;-73
2022/10/22 04:25:59;;;;;;;;;;;;;;;;;;5001976;28;1144;-77
2022/10/22 04:28:25;;;;;;;;;;;;;;;;;;5002216;28;1352;-77
2022/10/22 04:30:50;;;;;;;;;;;;;;;;;;5000615;28;1195;-77
2022/10/22 04:33:15;;;;;;;;;;;;;;;;;;5002640;28;2961;-77
2022/10/22 04:35:40;;;;;;;;;;;;;;;;;;5034149;28;1272;-78
2022/10/22 04:38:06;;;;;;;;;;;;;;;;;;5020307;28;992;-77
2022/10/22 04:40:31;;;;;;;;;;;;;;;;;;5035445;28;1270;-79
2022/10/22 04:42:56;;;;;;;;;;;;;;;;;;5028734;28;845;-78
2022/10/22 04:45:21;;;;;;;;;;;;;;;;;;5028188;28;1224;-78
2022/10/22 04:47:47;;;;;;;;;;;;;;;;;;5012875;28;885;-79
2022/10/22 04:50:12;;;;;;;;;;;;;;;;;;5027904;28;1161;-78
2022/10/22 04:52:38;;;;;;;;;;;;;;;;;;5027509;28;1959;-78
2022/10/22 04:55:03;;;;;;;;;;;;;;;;;;5012586;28;869;-77
2022/10/22 04:57:29;;;;;;;;;;;;;;;;;;5027829;28;785;-77
2022/10/22 04:59:55;;;;;;;;;;;;;;;;;;5010884;28;1131;-77
2022/10/22 05:02:20;;;;;;;;;;;;;;;;;;5027451;28;1260;-77
2022/10/22 05:04:45;;;;;;;;;;;;;;;;;;5012084;28;805;-77
2022/10/22 05:07:10;;;;;;;;;;;;;;;;;;5027712;28;876;-77
2022/10/22 05:09:36;;;;;;;;;;;;;;;;;;5012348;28;829;-77
2022/10/22 05:12:01;;;;;;;;;;;;;;;;;;5027453;28;1963;-78
2022/10/22 05:14:26;;;;;;;;;;;;;;;;;;5011924;28;901;-78
2022/10/22 05:16:52;;;;;;;;;;;;;;;;;;5026966;28;841;-77
2022/10/22 05:19:19;;;;;;;;;;;;;;;;;;5010687;28;1087;-79
2022/10/22 05:21:44;;;;;;;;;;;;;;;;;;5011495;28;845;-77
2022/10/22 05:24:10;;;;;;;;;;;;;;;;;;5027625;28;826;-77
2022/10/22 05:26:35;;;;;;;;;;;;;;;;;;5027212;28;1197;-77
2022/10/22 05:29:00;;;;;;;;;;;;;;;;;;5011990;28;805;-77
2022/10/22 05:31:27;;;;;;;;;;;;;;;;;;5027133;28;1956;-78
2022/10/22 05:33:53;;;;;;;;;;;;;;;;;;5012259;28;955;-77
2022/10/22 05:36:19;;;;;;;;;;;;;;;;;;5010813;28;1205;-73
2022/10/22 05:38:44;;;;;;;;;;;;;;;;;;5010821;28;963;-73
2022/10/22 05:41:11;;;;;;;;;;;;;;;;;;5010395;28;1372;-73
2022/10/22 05:43:37;;;;;;;;;;;;;;;;;;5009824;28;1221;-74
2022/10/22 05:46:03;;;;;;;;;;;;;;;;;;5042929;28;1189;-74
2022/10/22 05:48:28;;;;;;;;;;;;;;;;;;5031048;28;1012;-74
2022/10/22 05:50:55;;;;;;;;;;;;;;;;;;5012296;28;1161;-74
2022/10/22 05:53:20;;;;;;;;;;;;;;;;;;5029812;28;1977;-74
2022/10/22 05:55:45;;;;;;;;;;;;;;;;;;5012819;28;1383;-74
2022/10/22 05:58:11;;;;;;;;;;;;;;;;;;5030448;28;894;-74
2022/10/22 06:00:36;;;;;;;;;;;;;;;;;;5030823;28;944;-74
2022/10/22 06:03:01;;;;;;;;;;;;;;;;;;5013701;28;1340;-74
2022/10/22 06:05:27;;;;;;;;;;;;;;;;;;5013306;28;1351;-74
2022/10/22 06:07:52;;;;;;;;;;;;;;;;;;5031182;28;849;-74
2022/10/22 06:10:19;;;;;;;;;;;;;;;;;;5031378;28;993;-74
2022/10/22 06:12:45;;;;;;;;;;;;;;;;;;5012130;28;1953;-75
2022/10/22 06:15:11;;;;;;;;;;;;;;;;;;5026237;28;3551;-74
2022/10/22 06:17:37;;;;;;;;;;;;;;;;;;5010114;28;3792;-74
2022/10/22 06:20:02;;;;;;;;;;;;;;;;;;5006437;28;4099;-74
2022/10/22 06:22:27;;;;;;;;;;;;;;;;;;5012719;28;3284;-74
2022/10/22 06:24:53;;;;;;;;;;;;;;;;;;5013895;28;3351;-74
2022/10/22 06:27:18;;;;;;;;;;;;;;;;;;5030475;28;4182;-74
2022/10/22 06:29:43;;;;;;;;;;;;;;;;;;5029485;28;4201;-74
2022/10/22 06:32:09;;;;;;;;;;;;;;;;;;5028316;28;4198;-74
2022/10/22 06:34:34;;;;;;;;;;;;;;;;;;5018839;28;4047;-75
2022/10/22 06:37:02;;;;;;;;;;;;;;;;;;5009434;28;4533;-74
2022/10/22 06:39:27;;;;;;;;;;;;;;;;;;5016749;28;1383;-74
2022/10/22 06:41:52;;;;;;;;;;;;;;;;;;4989837;28;3622;-74
2022/10/22 06:44:18;;;;;;;;;;;;;;;;;;5013823;28;889;-74
2022/10/22 06:46:43;;;;;;;;;;;;;;;;;;5024450;28;3544;-74
2022/10/22 06:49:10;;;;;;;;;;;;;;;;;;5019020;28;3648;-74
2022/10/22 06:51:36;;;;;;;;;;;;;;;;;;5000782;28;4055;-74
2022/10/22 06:54:01;;;;;;;;;;;;;;;;;;4993576;28;4173;-74
2022/10/22 06:56:32;;;;;;;;;;;;;;;;;;4994202;28;3582;-74
2022/10/22 06:58:58;;;;;;;;;;;;;;;;;;5029268;28;3637;-74
2022/10/22 07:01:27;;;;;;;;;;;;;;;;;;5029867;28;3617;-74
2022/10/22 07:03:53;;;;;;;;;;;;;;;;;;5031474;28;908;-74
2022/10/22 07:06:19;;;;;;;;;;;;;;;;;;5033268;28;817;-74
2022/10/22 07:08:44;;;;;;;;;;;;;;;;;;5018723;28;4410;-74
2022/10/22 07:11:11;;;;;;;;;;;;;;;;;;5032013;28;1886;-74
2022/10/22 07:13:37;;;;;;;;;;;;;;;;;;5023791;28;3727;-74
2022/10/22 07:16:02;;;;;;;;;;;;;;;;;;4998165;28;4419;-74
2022/10/22 07:18:28;;;;;;;;;;;;;;;;;;5006271;28;3946;-74
2022/10/22 07:20:58;;;;;;;;;;;;;;;;;;5048083;28;912;-74
2022/10/22 07:23:24;;;;;;;;;;;;;;;;;;5024308;28;4258;-74
2022/10/22 07:25:52;;;;;;;;;;;;;;;;;;5013179;28;4206;-74
2022/10/22 07:28:18;;;;;;;;;;;;;;;;;;5038177;28;3691;-74
2022/10/22 07:30:43;;;;;;;;;;;;;;;;;;5014282;28;5041;-71
2022/10/22 07:33:08;;;;;;;;;;;;;;;;;;5032114;28;4198;-74
2022/10/22 07:35:35;;;;;;;;;;;;;;;;;;5013603;28;3656;-74
2022/10/22 07:38:01;;;;;;;;;;;;;;;;;;5031139;28;1291;-74
2022/10/22 07:40:26;;;;;;;;;;;;;;;;;;5048650;28;1287;-74
2022/10/22 07:42:51;;;;;;;;;;;;;;;;;;5031759;28;1620;-73
2022/10/22 07:45:17;;;;;;;;;;;;;;;;;;5033519;28;877;-74
2022/10/22 07:47:42;;;;;;;;;;;;;;;;;;5014984;28;3573;-74
2022/10/22 07:50:08;;;;;;;;;;;;;;;;;;5016118;28;1165;-74
2022/10/22 07:52:33;;;;;;;;;;;;;;;;;;5031556;28;2011;-74
2022/10/22 07:54:59;;;;;;;;;;;;;;;;;;5014225;28;917;-74
2022/10/22 07:57:24;;;;;;;;;;;;;;;;;;5047356;28;1435;-75
2022/10/22 07:59:50;;;;;;;;;;;;;;;;;;5047323;28;900;-74
2022/10/22 08:02:15;;;;;;;;;;;;;;;;;;5047125;28;1303;-74
2022/10/22 08:04:41;;;;;;;;;;;;;;;;;;5021894;28;1432;-74
2022/10/22 08:07:06;;;;;;;;;;;;;;;;;;5011110;28;1343;-74
2022/10/22 08:09:32;;;;;;;;;;;;;;;;;;5027899;28;1018;-74
2022/10/22 08:11:57;;;;;;;;;;;;;;;;;;5012080;28;1902;-75
2022/10/22 08:14:22;;;;;;;;;;;;;;;;;;5040323;28;1383;-74
2022/10/22 08:16:48;;;;;;;;;;;;;;;;;;5032129;28;881;-74
2022/10/22 08:19:17;;;;;;;;;;;;;;;;;;5014701;28;1165;-74
2022/10/22 08:21:45;;;;;;;;;;;;;;;;;;5031924;28;950;-74
2022/10/22 08:24:10;;;;;;;;;;;;;;;;;;5014255;28;1203;-74
2022/10/22 08:26:36;;;;;;;;;;;;;;;;;;5030981;28;991;-74
2022/10/22 08:29:01;;;;;;;;;;;;;;;;;;5013774;28;1204;-73
2022/10/22 08:31:26;;;;;;;;;;;;;;;;;;5014124;28;1887;-73
2022/10/22 08:33:52;;;;;;;;;;;;;;;;;;5031602;28;794;-72
2022/10/22 08:36:17;;;;;;;;;;;;;;;;;;5010854;28;1407;-72
2022/10/22 08:38:42;;;;;;;;;;;;;;;;;;5043876;28;1188;-72
2022/10/22 08:41:11;;;;;;;;;;;;;;;;;;5027453;28;975;-73
2022/10/22 08:43:48;;;;;;;;;;;;;;;;;;5010953;28;1324;-73
2022/10/22 08:46:21;;;;;;;;;;;;;;;;;;5009881;28;1264;-72
2022/10/22 08:48:54;;;;;;;;;;;;;;;;;;5010147;28;1292;-73
2022/10/22 08:51:22;;;;;;;;;;;;;;;;;;5011853;28;1910;-72
2022/10/22 08:53:59;;;;;;;;;;;;;;;;;;5012308;28;924;-72
2022/10/22 08:56:24;;;;;;;;;;;;;;;;;;5011878;28;853;-73
2022/10/22 08:58:54;;;;;;;;;;;;;;;;;;5011888;28;892;-72
2022/10/22 09:01:22;;;;;;;;;;;;;;;;;;5010335;28;1330;-72
2022/10/22 09:04:02;;;;;;;;;;;;;;;;;;5012389;28;813;-72
2022/10/22 09:06:32;;;;;;;;;;;;;;;;;;5010621;28;1429;-72
2022/10/22 09:08:59;;;;;;;;;;;;;;;;;;5010444;28;3609;-72
2022/10/22 09:11:35;;;;;;;;;;;;;;;;;;5012751;28;1902;-71
2022/10/22 09:14:02;;;;;;;;;;;;;;;;;;5044741;28;1314;-73
2022/10/22 09:16:30;;;;;;;;;;;;;;;;;;5012641;28;958;-72
2022/10/22 09:18:55;;;;;;;;;;;;;;;;;;5027171;28;1408;-72
2022/10/22 09:21:23;;;;;;;;;;;;;;;;;;5012675;28;884;-73
2022/10/22 09:23:53;;;;;;;;;;;;;;;;;;5044032;28;1219;-73
2022/10/22 09:26:18;;;;;;;;;;;;;;;;;;5010940;28;1312;-73
2022/10/22 09:28:48;;;;;;;;;;;;;;;;;;5027180;28;1239;-73
2022/10/22 09:31:14;;;;;;;;;;;;;;;;;;5043845;28;1900;-72
2022/10/22 09:33:40;;;;;;;;;;;;;;;;;;5012216;28;1062;-73
2022/10/22 09:36:06;;;;;;;;;;;;;;;;;;5021478;28;1118;-72
2022/10/22 09:38:52;;;;;;;;;;;;;;;;;;5014141;28;892;-72
2022/10/22 09:41:18;;;;;;;;;;;;;;;;;;5013166;28;1257;-73
2022/10/22 09:43:47;;;;;;;;;;;;;;;;;;4997116;28;1395;-73
2022/10/22 09:46:17;;;;;;;;;;;;;;;;;;4997499;28;1340;-72
2022/10/22 09:48:46;;;;;;;;;;;;;;;;;;5013175;28;1267;-72
2022/10/22 09:51:19;;;;;;;;;;;;;;;;;;5031319;28;1922;-72
2022/10/22 09:53:46;;;;;;;;;;;;;;;;;;5013718;28;1166;-72
2022/10/22 09:56:26;;;;;;;;;;;;;;;;;;5013306;28;1286;-72
2022/10/22 09:58:51;;;;;;;;;;;;;;;;;;5049856;28;1377;-72
2022/10/22 10:01:20;;;;;;;;;;;;;;;;;;5016739;28;1363;-72
2022/10/22 10:03:46;;;;;;;;;;;;;;;;;;5017159;28;1529;-72
2022/10/22 10:06:16;;;;;;;;;;;;;;;;;;5035447;28;1012;-72
2022/10/22 10:08:41;;;;;;;;;;;;;;;;;;5035177;28;936;-75
2022/10/22 10:11:16;;;;;;;;;;;;;;;;;;5017900;28;1288;-75
2022/10/22 10:13:54;;;;;;;;;;;;;;;;;;5018465;28;1217;-76
2022/10/22 10:16:26;;;;;;;;;;;;;;;;;;5017701;28;1225;-76
2022/10/22 10:18:54;;;;;;;;;;;;;;;;;;5017871;28;1201;-72
2022/10/22 10:21:30;;;;;;;;;;;;;;;;;;5035595;28;975;-72
2022/10/22 10:24:13;;;;;;;;;;;;;;;;;;5017546;28;1240;-72
2022/10/22 10:26:47;;;;;;;;;;;;;;;;;;5034646;28;904;-72
2022/10/22 10:29:21;;;;;;;;;;;;;;;;;;5016602;28;1196;-73
2022/10/22 10:32:08;;;;;;;;;;;;;;;;;;5032796;28;1906;-73
2022/10/22 10:34:39;;;;;;;;;;;;;;;;;;5017889;28;1192;-72
2022/10/22 10:37:08;;;;;;;;;;;;;;;;;;5001131;28;1456;-73
2022/10/22 10:39:37;;;;;;;;;;;;;;;;;;5017766;28;1101;-73
2022/10/22 10:42:02;;;;;;;;;;;;;;;;;;5034836;28;896;-72
2022/10/22 10:44:46;;;;;;;;;;;;;;;;;;5017844;28;1585;-72
2022/10/22 10:47:12;;;;;;;;;;;;;;;;;;5017613;28;1137;-72
2022/10/22 10:49:37;;;;;;;;;;;;;;;;;;5034987;28;872;-72
2022/10/22 10:52:21;;;;;;;;;;;;;;;;;;5015875;28;1995;-72
2022/10/22 10:54:47;;;;;;;;;;;;;;;;;;5016695;28;1160;-72
2022/10/22 10:57:12;;;;;;;;;;;;;;;;;;5033412;28;3595;-73
2022/10/22 10:59:47;;;;;;;;;;;;;;;;;;5049855;28;1326;-72
2022/10/22 11:02:21;;;;;;;;;;;;;;;;;;5050327;28;1263;-72
2022/10/22 11:05:05;;;;;;;;;;;;;;;;;;5048767;28;1102;-72
2022/10/22 11:07:45;;;;;;;;;;;;;;;;;;5016047;28;1196;-72
2022/10/22 11:10:21;;;;;;;;;;;;;;;;;;5017252;28;1212;-72
2022/10/22 11:12:50;;;;;;;;;;;;;;;;;;5049246;28;1902;-72
2022/10/22 11:15:35;;;;;;;;;;;;;;;;;;5049267;28;1214;-72
2022/10/22 11:18:12;;;;;;;;;;;;;;;;;;5034120;28;877;-73
2022/10/22 11:20:43;;;;;;;;;;;;;;;;;;5048923;28;1278;-72
2022/10/22 11:23:13;;;;;;;;;;;;;;;;;;5034251;28;826;-72
2022/10/22 11:25:42;;;;;;;;;;;;;;;;;;5033679;28;1265;-72
2022/10/22 11:28:10;;;;;;;;;;;;;;;;;;5015965;28;1241;-73
2022/10/22 11:30:37;;;;;;;;;;;;;;;;;;5015649;28;1507;-73
2022/10/22 11:33:08;;;;;;;;;;;;;;;;;;5033483;28;1878;-73
2022/10/22 11:35:36;;;;;;;;;;;;;;;;;;5015146;28;1291;-73
2022/10/22 11:38:03;;;;;;;;;;;;;;;;;;5033544;28;948;-73
2022/10/22 11:40:31;;;;;;;;;;;;;;;;;;5015922;28;1303;-73
2022/10/22 11:43:17;;;;;;;;;;;;;;;;;;5015050;28;1212;-72
2022/10/22 11:45:42;;;;;;;;;;;;;;;;;;5025343;28;1069;-73
2022/10/22 11:48:11;;;;;;;;;;;;;;;;;;5015829;28;1225;-73
2022/10/22 11:50:56;;;;;;;;;;;;;;;;;;5033159;28;1023;-72
2022/10/22 11:53:24;;;;;;;;;;;;;;;;;;5032954;28;1977;-72
2022/10/22 11:55:50;;;;;;;;;;;;;;;;;;5015253;28;1275;-72
2022/10/22 11:58:25;;;;;;;;;;;;;;;;;;5015577;28;1475;-72
2022/10/22 12:00:50;;;;;;;;;;;;;;;;;;5016032;28;1093;-71
2022/10/22 12:03:31;;;;;;;;;;;;;;;;;;5016424;28;1078;-73
2022/10/22 12:06:18;;;;;;;;;;;;;;;;;;5033969;28;806;-72
2022/10/22 12:08:43;;;;;;;;;;;;;;;;;;5016313;28;1351;-72
2022/10/22 12:11:09;;;;;;;;;;;;;;;;;;5034258;28;1008;-72
2022/10/22 12:13:57;;;;;;;;;;;;;;;;;;5019844;28;1925;-72
2022/10/22 12:16:23;;;;;;;;;;;;;;;;;;5040609;28;846;-71
2022/10/22 12:18:54;;;;;;;;;;;;;;;;;;5039412;28;1007;-72
2022/10/22 12:21:19;;;;;;;;;;;;;;;;;;5021298;28;1097;-72
2022/10/22 12:23:45;;;;;;;;;;;;;;;;;;5039310;28;948;-71
2022/10/22 12:26:27;;;;;;;;;;;;;;;;;;5020970;28;1213;-72
2022/10/22 12:29:12;;;;;;;;;;;;;;;;;;5042970;28;1077;-70
2022/10/22 12:31:38;;;;;;;;;;;;;;;;;;5025621;28;3640;-73
2022/10/22 12:34:04;;;;;;;;;;;;;;;;;;5033156;28;3477;-72
2022/10/22 12:36:31;;;;;;;;;;;;;;;;;;5023694;28;1198;-72
2022/10/22 12:39:08;;;;;;;;;;;;;;;;;;5020328;28;1511;-72
2022/10/22 12:41:34;;;;;;;;;;;;;;;;;;5055846;28;1480;-71
2022/10/22 12:44:00;;;;;;;;;;;;;;;;;;5040253;28;821;-71
2022/10/22 12:46:26;;;;;;;;;;;;;;;;;;5036781;28;1276;-73
2022/10/22 12:48:51;;;;;;;;;;;;;;;;;;5030577;28;1165;-72
2022/10/22 12:51:19;;;;;;;;;;;;;;;;;;5030834;28;1961;-72
2022/10/22 12:53:46;;;;;;;;;;;;;;;;;;5047073;28;1436;-72
2022/10/22 12:56:16;;;;;;;;;;;;;;;;;;5032384;28;895;-72
2022/10/22 12:58:44;;;;;;;;;;;;;;;;;;5013934;28;1363;-73
2022/10/22 13:01:10;;;;;;;;;;;;;;;;;;5014219;28;1224;-72
2022/10/22 13:03:40;;;;;;;;;;;;;;;;;;5046347;28;1386;-72
2022/10/22 13:06:12;;;;;;;;;;;;;;;;;;5013052;28;1067;-72
2022/10/22 13:08:38;;;;;;;;;;;;;;;;;;5030598;28;1367;-72
2022/10/22 13:11:09;;;;;;;;;;;;;;;;;;5013504;28;1178;-72
2022/10/22 13:13:42;;;;;;;;;;;;;;;;;;5046647;28;1912;-72
2022/10/22 13:16:14;;;;;;;;;;;;;;;;;;5013056;28;1270;-72
2022/10/22 13:18:40;;;;;;;;;;;;;;;;;;5031656;28;809;-72
2022/10/22 13:21:20;;;;;;;;;;;;;;;;;;5031540;28;845;-72
2022/10/22 13:23:51;;;;;;;;;;;;;;;;;;5031295;28;849;-71
2022/10/22 13:26:17;;;;;;;;;;;;;;;;;;5031380;28;939;-72
2022/10/22 13:28:53;;;;;;;;;;;;;;;;;;5013753;28;1071;-71
2022/10/22 13:31:19;;;;;;;;;;;;;;;;;;5014095;28;1890;-72
2022/10/22 13:33:50;;;;;;;;;;;;;;;;;;5035363;28;935;-71
2022/10/22 13:36:16;;;;;;;;;;;;;;;;;;5036166;28;1197;-72
2022/10/22 13:38:42;;;;;;;;;;;;;;;;;;5036227;28;826;-72
2022/10/22 13:41:37;;;;;;;;;;;;;;;;;;5018324;28;1468;-73
2022/10/22 13:44:02;;;;;;;;;;;;;;;;;;5013349;28;1285;-71
2022/10/22 13:46:28;;;;;;;;;;;;;;;;;;5050915;28;916;-72
2022/10/22 13:48:54;;;;;;;;;;;;;;;;;;5034320;28;1245;-72
2022/10/22 13:51:21;;;;;;;;;;;;;;;;;;5016938;28;1942;-72
2022/10/22 13:53:46;;;;;;;;;;;;;;;;;;5016454;28;1145;-72
2022/10/22 13:56:14;;;;;;;;;;;;;;;;;;5050606;28;1444;-72
2022/10/22 13:58:40;;;;;;;;;;;;;;;;;;5016036;28;1478;-72
2022/10/22 14:01:12;;;;;;;;;;;;;;;;;;5017072;28;1272;-72
2022/10/22 14:03:39;;;;;;;;;;;;;;;;;;5035306;28;1031;-72
2022/10/22 14:06:10;;;;;;;;;;;;;;;;;;5050611;28;1223;-72
2022/10/22 14:08:36;;;;;;;;;;;;;;;;;;5049483;28;2097;-72
2022/10/22 14:11:02;;;;;;;;;;;;;;;;;;5033260;28;1436;-72
2022/10/22 14:13:27;;;;;;;;;;;;;;;;;;5034503;28;1906;-73
2022/10/22 14:15:52;;;;;;;;;;;;;;;;;;5034551;28;891;-73
2022/10/22 14:18:25;;;;;;;;;;;;;;;;;;5034725;28;938;-73
2022/10/22 14:20:52;;;;;;;;;;;;;;;;;;5033581;28;3631;-73
2022/10/22 14:23:21;;;;;;;;;;;;;;;;;;5034464;28;912;-74
2022/10/22 14:25:46;;;;;;;;;;;;;;;;;;5032602;28;1196;-71
2022/10/22 14:28:12;;;;;;;;;;;;;;;;;;5034631;28;959;-72
2022/10/22 14:30:42;;;;;;;;;;;;;;;;;;5032780;28;1316;-72
2022/10/22 14:33:13;;;;;;;;;;;;;;;;;;5048879;28;1922;-73
2022/10/22 14:35:40;;;;;;;;;;;;;;;;;;5029330;28;1314;-73
2022/10/22 14:38:05;;;;;;;;;;;;;;;;;;5012901;28;1017;-73
2022/10/22 14:40:30;;;;;;;;;;;;;;;;;;5012866;28;1227;-73
2022/10/22 14:42:55;;;;;;;;;;;;;;;;;;5011005;28;1211;-73
2022/10/22 14:45:22;;;;;;;;;;;;;;;;;;5013093;28;1198;-73
2022/10/22 14:47:48;;;;;;;;;;;;;;;;;;5014007;28;813;-73
2022/10/22 14:50:14;;;;;;;;;;;;;;;;;;5029540;28;1324;-73
2022/10/22 14:52:41;;;;;;;;;;;;;;;;;;5014313;28;1962;-73
2022/10/22 14:55:07;;;;;;;;;;;;;;;;;;5013854;28;778;-73
2022/10/22 14:57:33;;;;;;;;;;;;;;;;;;5012402;28;1124;-73
2022/10/22 14:59:58;;;;;;;;;;;;;;;;;;5012493;28;1047;-73
2022/10/22 15:02:29;;;;;;;;;;;;;;;;;;5013260;28;913;-73
2022/10/22 15:04:54;;;;;;;;;;;;;;;;;;5014137;28;1253;-73
2022/10/22 15:07:20;;;;;;;;;;;;;;;;;;5013527;28;1287;-73
2022/10/22 15:09:48;;;;;;;;;;;;;;;;;;5012200;28;1350;-74
2022/10/22 15:12:13;;;;;;;;;;;;;;;;;;5013036;28;1906;-74
2022/10/22 15:14:39;;;;;;;;;;;;;;;;;;5013054;28;898;-73
2022/10/22 15:17:04;;;;;;;;;;;;;;;;;;5012475;28;1322;-72
2022/10/22 15:19:29;;;;;;;;;;;;;;;;;;5012191;28;1147;-72
2022/10/22 15:21:57;;;;;;;;;;;;;;;;;;5011778;28;853;-73
2022/10/22 15:24:22;;;;;;;;;;;;;;;;;;5013750;28;1249;-73
2022/10/22 15:26:49;;;;;;;;;;;;;;;;;;5011297;28;1282;-73
2022/10/22 15:29:15;;;;;;;;;;;;;;;;;;5012166;28;1399;-73
2022/10/22 15:31:51;;;;;;;;;;;;;;;;;;5011685;28;1907;-73
2022/10/22 15:34:21;;;;;;;;;;;;;;;;;;5013555;28;884;-71
2022/10/22 15:36:47;;;;;;;;;;;;;;;;;;5027179;28;1359;-72
2022/10/22 15:39:12;;;;;;;;;;;;;;;;;;5013413;28;884;-72
2022/10/22 15:41:37;;;;;;;;;;;;;;;;;;5013757;28;901;-73
2022/10/22 15:44:04;;;;;;;;;;;;;;;;;;5011262;28;1275;-73
2022/10/22 15:46:31;;;;;;;;;;;;;;;;;;5028140;28;1114;-73
2022/10/22 15:48:56;;;;;;;;;;;;;;;;;;5012747;28;1079;-73
2022/10/22 15:51:22;;;;;;;;;;;;;;;;;;5028504;28;1910;-73
2022/10/22 15:53:50;;;;;;;;;;;;;;;;;;5012796;28;842;-72
2022/10/22 15:56:15;;;;;;;;;;;;;;;;;;5011914;28;963;-72
2022/10/22 15:58:41;;;;;;;;;;;;;;;;;;5011115;28;1090;-73
2022/10/22 16:01:08;;;;;;;;;;;;;;;;;;5012655;28;970;-73
2022/10/22 16:03:33;;;;;;;;;;;;;;;;;;5027733;28;1129;-73
2022/10/22 16:05:58;;;;;;;;;;;;;;;;;;5012418;28;933;-73
2022/10/22 16:08:24;;;;;;;;;;;;;;;;;;5010462;28;3632;-72
2022/10/22 16:10:50;;;;;;;;;;;;;;;;;;5012160;28;892;-73
2022/10/22 16:13:15;;;;;;;;;;;;;;;;;;5027293;28;1894;-73
2022/10/22 16:15:41;;;;;;;;;;;;;;;;;;5010972;28;1117;-73
2022/10/22 16:18:06;;;;;;;;;;;;;;;;;;5012451;28;849;-73
2022/10/22 16:20:31;;;;;;;;;;;;;;;;;;5012176;28;1048;-73
2022/10/22 16:22:56;;;;;;;;;;;;;;;;;;5012238;28;935;-73
2022/10/22 16:25:23;;;;;;;;;;;;;;;;;;5027466;28;1384;-73
2022/10/22 16:27:49;;;;;;;;;;;;;;;;;;5026878;28;1451;-73
2022/10/22 16:30:15;;;;;;;;;;;;;;;;;;5027618;28;1259;-73
2022/10/22 16:32:40;;;;;;;;;;;;;;;;;;5027202;28;1898;-73
2022/10/22 16:35:07;;;;;;;;;;;;;;;;;;5012224;28;1319;-73
2022/10/22 16:37:35;;;;;;;;;;;;;;;;;;5047998;28;931;-73
2022/10/22 16:40:08;;;;;;;;;;;;;;;;;;5047841;28;892;-73
2022/10/22 16:42:34;;;;;;;;;;;;;;;;;;5047509;28;884;-73
2022/10/22 16:44:59;;;;;;;;;;;;;;;;;;5047167;28;888;-73
2022/10/22 16:47:27;;;;;;;;;;;;;;;;;;5047787;28;818;-73
2022/10/22 16:49:52;;;;;;;;;;;;;;;;;;5031299;28;838;-73
2022/10/22 16:52:17;;;;;;;;;;;;;;;;;;5046775;28;1973;-73
2022/10/22 16:54:43;;;;;;;;;;;;;;;;;;5031141;28;833;-73
2022/10/22 16:57:11;;;;;;;;;;;;;;;;;;5046613;28;1204;-73
2022/10/22 16:59:36;;;;;;;;;;;;;;;;;;5045988;28;1548;-74
2022/10/22 17:02:01;;;;;;;;;;;;;;;;;;5031158;28;1047;-73
2022/10/22 17:04:27;;;;;;;;;;;;;;;;;;5046468;28;849;-74
2022/10/22 17:06:52;;;;;;;;;;;;;;;;;;5029302;28;1144;-73
2022/10/22 17:09:17;;;;;;;;;;;;;;;;;;5031617;28;936;-74
2022/10/22 17:11:43;;;;;;;;;;;;;;;;;;5029850;28;1924;-73